Time;durP1;ratioP1;P1;durP2;ratioP2;P2;SDS_P1;SDS_P2;PMS_P1;PMS_P2;Temp;Humidity;BMP_temperature;BMP_pressure;BME280_temperature;BME280_humidity;BME280_pressure;Samples;Min_cycle;Max_cycle;Signal;HPM_P1;HPM_P2
2021/07/11 00:02:23;;;;;;;13.97;12.80;;;17.80;99.90;;;;;;5072080;28;20555;-86
2021/07/11 00:04:50;;;;;;;13.37;12.00;;;17.80;99.90;;;;;;5072036;28;20490;-86
2021/07/11 00:07:16;;;;;;;13.67;12.47;;;17.80;99.90;;;;;;5071902;28;20475;-86
2021/07/11 00:09:44;;;;;;;14.50;13.20;;;17.80;99.90;;;;;;5071438;28;20483;-86
2021/07/11 00:12:11;;;;;;;14.43;12.03;;;17.80;99.90;;;;;;5072007;28;20538;-86
2021/07/11 00:14:38;;;;;;;22.50;12.43;;;17.80;99.90;;;;;;5071947;28;20543;-86
2021/07/11 00:17:05;;;;;;;13.00;11.83;;;17.70;99.90;;;;;;5072166;28;20861;-85
2021/07/11 00:19:38;;;;;;;14.30;11.73;;;17.70;99.90;;;;;;5071951;28;20483;-85
2021/07/11 00:22:05;;;;;;;14.63;12.50;;;17.80;99.90;;;;;;5071460;28;20451;-86
2021/07/11 00:24:39;;;;;;;14.60;12.60;;;17.80;99.90;;;;;;5071874;28;20507;-86
2021/07/11 00:27:06;;;;;;;13.40;12.00;;;17.80;99.90;;;;;;5071933;28;20447;-86
2021/07/11 00:29:32;;;;;;;13.00;11.77;;;17.70;99.90;;;;;;5075775;28;20447;-86
2021/07/11 00:32:00;;;;;;;13.27;12.07;;;17.60;99.90;;;;;;5075472;28;20485;-86
2021/07/11 00:34:27;;;;;;;13.87;12.37;;;17.60;99.90;;;;;;5075498;28;20482;-85
2021/07/11 00:36:54;;;;;;;13.80;12.60;;;17.60;99.90;;;;;;5075364;28;20535;-85
2021/07/11 00:39:20;;;;;;;13.63;12.30;;;17.60;99.90;;;;;;5075474;28;20969;-85
2021/07/11 00:41:47;;;;;;;14.60;13.00;;;17.60;99.90;;;;;;5075417;28;20483;-85
2021/07/11 00:44:14;;;;;;;14.27;12.97;;;17.60;99.90;;;;;;5075430;28;20473;-84
2021/07/11 00:46:44;;;;;;;13.07;11.77;;;17.60;99.90;;;;;;5075942;28;20447;-85
2021/07/11 00:49:13;;;;;;;14.80;13.50;;;17.60;99.90;;;;;;5075032;28;21005;-85
2021/07/11 00:51:40;;;;;;;16.73;12.40;;;17.50;99.90;;;;;;5075426;28;20435;-85
2021/07/11 00:54:07;;;;;;;12.93;11.73;;;17.50;99.90;;;;;;5075235;28;20471;-85
2021/07/11 00:56:33;;;;;;;15.33;13.83;;;17.50;99.90;;;;;;5075585;28;20545;-85
2021/07/11 00:59:00;;;;;;;13.97;12.67;;;17.50;99.90;;;;;;5075198;28;20447;-84
2021/07/11 01:01:37;;;;;;;14.53;12.20;;;17.40;99.90;;;;;;5075183;28;20455;-84
2021/07/11 01:04:08;;;;;;;14.47;13.17;;;17.40;99.90;;;;;;5075153;28;20443;-84
2021/07/11 01:06:40;;;;;;;14.90;13.40;;;17.40;99.90;;;;;;5075218;28;20443;-84
2021/07/11 01:09:11;;;;;;;15.20;13.80;;;17.40;99.90;;;;;;5074831;28;20885;-84
2021/07/11 01:11:45;;;;;;;15.83;14.20;;;17.40;99.90;;;;;;5075287;28;20543;-84
2021/07/11 01:14:15;;;;;;;15.10;13.80;;;17.30;99.90;;;;;;5074742;28;20435;-84
2021/07/11 01:16:43;;;;;;;13.83;12.50;;;17.30;99.90;;;;;;5075006;28;20532;-84
2021/07/11 01:19:19;;;;;;;15.60;14.00;;;17.20;99.90;;;;;;5074722;28;20526;-84
2021/07/11 01:21:52;;;;;;;14.23;13.03;;;17.20;99.90;;;;;;5074857;28;20474;-84
2021/07/11 01:24:22;;;;;;;15.27;13.87;;;17.20;99.90;;;;;;5074931;28;20447;-84
2021/07/11 01:26:51;;;;;;;16.10;14.60;;;17.10;99.90;;;;;;5074700;28;20545;-84
2021/07/11 01:29:19;;;;;;;15.63;14.23;;;17.20;99.90;;;;;;5074720;28;20440;-84
2021/07/11 01:31:47;;;;;;;18.00;13.60;;;17.10;99.90;;;;;;5074676;28;20440;-84
2021/07/11 01:34:14;;;;;;;14.23;12.97;;;17.10;99.90;;;;;;5074448;28;20447;-84
2021/07/11 01:36:41;;;;;;;15.47;14.07;;;17.10;99.90;;;;;;5074531;28;20475;-84
2021/07/11 01:39:10;;;;;;;14.03;12.73;;;17.10;99.90;;;;;;5073018;28;20447;-84
2021/07/11 01:41:38;;;;;;;14.13;12.93;;;17.00;99.90;;;;;;5074640;28;20543;-85
2021/07/11 01:44:07;;;;;;;13.20;12.00;;;17.00;99.90;;;;;;5074019;28;20833;-84
2021/07/11 01:46:35;;;;;;;13.37;12.07;;;17.00;99.90;;;;;;5074402;28;20474;-84
2021/07/11 01:49:02;;;;;;;12.33;11.33;;;17.00;99.90;;;;;;5073012;28;20451;-84
2021/07/11 01:51:29;;;;;;;13.33;12.00;;;17.00;99.90;;;;;;5074211;28;20554;-84
2021/07/11 01:53:56;;;;;;;14.30;12.97;;;17.00;99.90;;;;;;5073716;28;20510;-85
2021/07/11 01:56:23;;;;;;;14.43;13.13;;;17.00;99.90;;;;;;5074001;28;20503;-85
2021/07/11 01:58:50;;;;;;;13.90;12.53;;;17.00;99.90;;;;;;5074184;28;20431;-84
2021/07/11 02:01:19;;;;;;;13.33;12.13;;;17.00;99.90;;;;;;5074262;28;20446;-84
2021/07/11 02:03:46;;;;;;;14.07;12.87;;;17.00;99.90;;;;;;5073891;28;20440;-84
2021/07/11 02:06:14;;;;;;;13.60;12.30;;;16.90;99.90;;;;;;5073670;28;20523;-84
2021/07/11 02:08:42;;;;;;;13.87;12.67;;;16.90;99.90;;;;;;5073872;28;20516;-84
2021/07/11 02:11:10;;;;;;;13.40;12.20;;;16.90;99.90;;;;;;5073520;28;20443;-85
2021/07/11 02:13:43;;;;;;;14.07;12.57;;;16.90;99.90;;;;;;5073332;28;20615;-85
2021/07/11 02:16:14;;;;;;;12.83;11.60;;;16.80;99.90;;;;;;5073364;28;20506;-85
2021/07/11 02:18:43;;;;;;;14.73;12.23;;;16.90;99.90;;;;;;5073596;28;20450;-84
2021/07/11 02:21:10;;;;;;;14.30;13.00;;;16.90;99.90;;;;;;5073068;28;20482;-85
2021/07/11 02:23:37;;;;;;;12.87;11.57;;;16.80;99.90;;;;;;5073795;28;20475;-85
2021/07/11 02:26:06;;;;;;;12.80;11.70;;;16.80;99.90;;;;;;5072197;28;20513;-87
2021/07/11 02:28:35;;;;;;;14.03;12.83;;;16.90;99.90;;;;;;5072047;28;20454;-87
2021/07/11 02:31:03;;;;;;;13.30;11.93;;;16.80;99.90;;;;;;5071277;28;20451;-87
2021/07/11 02:33:36;;;;;;;13.33;11.87;;;16.80;99.90;;;;;;5072552;28;20444;-87
2021/07/11 02:36:10;;;;;;;13.57;12.23;;;16.80;99.90;;;;;;5072137;28;21081;-85
2021/07/11 02:38:42;;;;;;;14.07;12.77;;;16.80;99.90;;;;;;5072635;28;20988;-85
2021/07/11 02:41:09;;;;;;;13.23;12.07;;;16.70;99.90;;;;;;5072964;28;20787;-85
2021/07/11 02:43:37;;;;;;;14.07;12.57;;;16.70;99.90;;;;;;5073166;28;20451;-85
2021/07/11 02:46:04;;;;;;;13.13;11.83;;;16.70;99.90;;;;;;5073123;28;20448;-85
2021/07/11 02:48:34;;;;;;;14.30;12.97;;;16.70;99.90;;;;;;5073107;28;20486;-85
2021/07/11 02:51:01;;;;;;;14.27;12.77;;;16.60;99.90;;;;;;5072487;28;20961;-84
2021/07/11 02:53:29;;;;;;;13.67;12.40;;;16.60;99.90;;;;;;5072831;28;20523;-84
2021/07/11 02:55:59;;;;;;;15.70;14.10;;;16.60;99.90;;;;;;5072627;28;20528;-84
2021/07/11 02:58:27;;;;;;;12.00;11.00;;;16.60;99.90;;;;;;5072929;28;20470;-84
2021/07/11 03:00:54;;;;;;;14.80;12.50;;;16.60;99.90;;;;;;5072973;28;20439;-85
2021/07/11 03:03:22;;;;;;;13.33;12.23;;;16.60;99.90;;;;;;5072904;28;20965;-84
2021/07/11 03:05:49;;;;;;;12.63;11.57;;;16.60;99.90;;;;;;5072950;28;20530;-84
2021/07/11 03:08:15;;;;;;;13.67;12.37;;;16.60;99.90;;;;;;5072309;28;20873;-87
2021/07/11 03:10:45;;;;;;;12.30;11.20;;;16.60;99.90;;;;;;5072771;28;20490;-87
2021/07/11 03:13:12;;;;;;;12.63;11.43;;;16.70;99.90;;;;;;5072655;28;20493;-87
2021/07/11 03:15:39;;;;;;;12.83;11.70;;;16.70;99.90;;;;;;5072877;28;20823;-88
2021/07/11 03:18:06;;;;;;;13.53;12.10;;;16.70;99.90;;;;;;5072669;28;20542;-88
2021/07/11 03:20:34;;;;;;;12.60;11.40;;;16.70;99.90;;;;;;5072644;28;20444;-88
2021/07/11 03:23:02;;;;;;;13.10;11.80;;;16.70;99.90;;;;;;5072448;28;20447;-88
2021/07/11 03:25:29;;;;;;;11.57;10.57;;;16.80;99.90;;;;;;5072562;28;20482;-86
2021/07/11 03:28:00;;;;;;;13.20;12.03;;;16.80;99.90;;;;;;5072551;28;20478;-86
2021/07/11 03:30:36;;;;;;;13.07;11.97;;;16.80;99.90;;;;;;5072469;28;20483;-86
2021/07/11 03:33:05;;;;;;;11.70;10.53;;;16.80;99.90;;;;;;5072478;28;20454;-86
2021/07/11 03:35:35;;;;;;;12.60;11.60;;;16.80;99.90;;;;;;5072511;28;20530;-83
2021/07/11 03:38:03;;;;;;;12.10;11.03;;;16.80;99.90;;;;;;5072252;28;20475;-84
2021/07/11 03:40:33;;;;;;;12.33;11.30;;;16.80;99.90;;;;;;5072286;28;20471;-84
2021/07/11 03:43:05;;;;;;;12.33;11.23;;;16.80;99.90;;;;;;5072509;28;20547;-84
2021/07/11 03:45:33;;;;;;;12.47;11.43;;;16.80;99.90;;;;;;5072321;28;20538;-86
2021/07/11 03:48:05;;;;;;;11.67;10.63;;;16.80;99.90;;;;;;5072176;28;20493;-86
2021/07/11 03:50:32;;;;;;;12.17;11.10;;;16.80;99.90;;;;;;5072172;28;20534;-86
2021/07/11 03:53:04;;;;;;;13.07;11.97;;;16.90;99.90;;;;;;5072414;28;20475;-86
2021/07/11 03:55:32;;;;;;;12.83;11.77;;;17.00;99.90;;;;;;5071997;28;20508;-84
2021/07/11 03:58:01;;;;;;;10.90;10.00;;;17.00;99.90;;;;;;5072153;28;20451;-84
2021/07/11 04:00:29;;;;;;;12.77;11.07;;;17.00;99.90;;;;;;5072111;28;20479;-84
2021/07/11 04:02:56;;;;;;;12.30;11.20;;;17.00;99.90;;;;;;5073582;28;20443;-84
2021/07/11 04:05:28;;;;;;;11.87;10.87;;;17.10;99.90;;;;;;5076490;28;20471;-84
2021/07/11 04:07:56;;;;;;;11.77;10.77;;;17.20;99.90;;;;;;5076183;28;20537;-85
2021/07/11 04:10:25;;;;;;;11.57;10.57;;;17.20;99.90;;;;;;5076172;28;20443;-84
2021/07/11 04:12:52;;;;;;;11.33;10.43;;;17.20;99.90;;;;;;5075950;28;20450;-85
2021/07/11 04:15:20;;;;;;;11.37;10.37;;;17.30;99.90;;;;;;5076265;28;20444;-85
2021/07/11 04:17:49;;;;;;;11.80;10.60;;;17.40;99.90;;;;;;5075675;28;20586;-85
2021/07/11 04:20:17;;;;;;;11.03;10.10;;;17.50;99.90;;;;;;5076000;28;20497;-85
2021/07/11 04:22:45;;;;;;;11.17;10.27;;;17.60;99.90;;;;;;5075883;28;20482;-85
2021/07/11 04:25:14;;;;;;;11.73;10.60;;;17.70;99.90;;;;;;5075956;28;20875;-85
2021/07/11 04:27:43;;;;;;;10.90;10.03;;;17.80;99.90;;;;;;5075750;28;20534;-86
2021/07/11 04:30:10;;;;;;;11.17;10.10;;;17.80;99.90;;;;;;5075576;28;20470;-86
2021/07/11 04:32:38;;;;;;;13.27;10.43;;;18.00;99.90;;;;;;5075585;28;20965;-86
2021/07/11 04:35:05;;;;;;;10.10;9.20;;;18.10;99.90;;;;;;5075677;28;20542;-86
2021/07/11 04:37:32;;;;;;;10.43;9.50;;;18.20;99.90;;;;;;5075616;28;20941;-84
2021/07/11 04:39:58;;;;;;;11.43;10.33;;;18.30;99.90;;;;;;5075386;28;20490;-84
2021/07/11 04:42:25;;;;;;;12.60;11.40;;;18.40;99.90;;;;;;5075445;28;20486;-84
2021/07/11 04:44:53;;;;;;;12.20;11.00;;;18.50;99.90;;;;;;5075311;28;20490;-85
2021/07/11 04:47:20;;;;;;;10.87;9.87;;;18.50;99.90;;;;;;5075345;28;20987;-85
2021/07/11 04:49:48;;;;;;;10.10;9.10;;;18.60;99.90;;;;;;5075329;28;20475;-84
2021/07/11 04:52:14;;;;;;;10.20;9.40;;;18.70;99.90;;;;;;5075177;28;20483;-84
2021/07/11 04:54:41;;;;;;;10.47;9.57;;;18.80;99.90;;;;;;5075237;28;20478;-83
2021/07/11 04:57:08;;;;;;;10.10;9.40;;;18.90;99.90;;;;;;5074979;28;20573;-84
2021/07/11 04:59:34;;;;;;;15.20;10.17;;;18.90;99.90;;;;;;5075388;28;20533;-82
2021/07/11 05:02:01;;;;;;;9.60;8.80;;;19.00;99.90;;;;;;5075011;28;20942;-85
2021/07/11 05:04:28;;;;;;;10.17;9.37;;;19.10;99.90;;;;;;5075319;28;20526;-86
2021/07/11 05:06:56;;;;;;;10.63;9.63;;;19.20;99.90;;;;;;5075156;28;20881;-86
2021/07/11 05:09:23;;;;;;;9.10;8.30;;;19.30;99.90;;;;;;5075229;28;20523;-85
2021/07/11 05:11:50;;;;;;;11.47;10.40;;;19.40;99.90;;;;;;5074929;28;20486;-85
2021/07/11 05:14:18;;;;;;;10.50;9.47;;;19.50;99.90;;;;;;5075041;28;20528;-85
2021/07/11 05:16:45;;;;;;;9.50;8.70;;;19.60;99.90;;;;;;5074964;28;20498;-86
2021/07/11 05:19:11;;;;;;;9.90;8.50;;;19.70;99.90;;;;;;5074977;28;20448;-86
2021/07/11 05:21:38;;;;;;;9.43;8.60;;;19.80;99.90;;;;;;5074967;28;20530;-86
2021/07/11 05:24:06;;;;;;;8.63;8.03;;;19.90;99.90;;;;;;5074739;28;20517;-86
2021/07/11 05:26:33;;;;;;;10.97;8.67;;;20.00;99.90;;;;;;5074767;28;20535;-86
2021/07/11 05:28:59;;;;;;;8.57;7.97;;;20.10;99.90;;;;;;5074829;28;20542;-86
2021/07/11 05:31:26;;;;;;;8.67;8.07;;;20.20;99.90;;;;;;5074996;28;20471;-86
2021/07/11 05:33:53;;;;;;;8.73;8.13;;;20.30;99.90;;;;;;5074608;28;20548;-86
2021/07/11 05:36:19;;;;;;;9.70;8.90;;;20.40;99.90;;;;;;5074707;28;20534;-86
2021/07/11 05:38:46;;;;;;;9.60;8.77;;;20.60;99.90;;;;;;5074492;28;20448;-85
2021/07/11 05:41:14;;;;;;;10.87;9.87;;;20.70;99.90;;;;;;5058260;28;20476;-85
2021/07/11 05:43:40;;;;;;;8.77;8.17;;;20.80;99.90;;;;;;5074537;28;20505;-85
2021/07/11 05:46:07;;;;;;;8.00;7.40;;;21.00;99.90;;;;;;5074250;28;20534;-85
2021/07/11 05:48:34;;;;;;;7.93;7.30;;;21.20;99.90;;;;;;5074270;28;20471;-84
2021/07/11 05:51:00;;;;;;;9.40;7.17;;;21.50;99.90;;;;;;5074352;28;20467;-85
2021/07/11 05:53:27;;;;;;;7.60;7.00;;;21.70;99.90;;;;;;5073973;28;20470;-86
2021/07/11 05:55:53;;;;;;;7.03;6.53;;;22.00;99.90;;;;;;5074374;28;20476;-85
2021/07/11 05:58:21;;;;;;;7.53;6.93;;;22.30;99.90;;;;;;5074247;28;20515;-84
2021/07/11 06:00:48;;;;;;;6.97;6.27;;;22.50;99.90;;;;;;5074300;28;20500;-84
2021/07/11 06:03:14;;;;;;;5.97;5.57;;;22.80;99.90;;;;;;5074043;28;20475;-84
2021/07/11 06:05:43;;;;;;;6.87;6.43;;;22.90;99.90;;;;;;5074100;28;20504;-85
2021/07/11 06:08:10;;;;;;;7.50;7.00;;;23.10;99.90;;;;;;5074091;28;20540;-85
2021/07/11 06:10:36;;;;;;;6.33;5.87;;;23.40;99.90;;;;;;5074112;28;20448;-85
2021/07/11 06:13:03;;;;;;;7.37;6.77;;;23.70;99.90;;;;;;5073978;28;20480;-86
2021/07/11 06:15:32;;;;;;;8.83;8.13;;;24.10;99.90;;;;;;5074145;28;20486;-85
2021/07/11 06:17:59;;;;;;;6.70;6.20;;;24.40;99.90;;;;;;5073699;28;20718;-86
2021/07/11 06:20:25;;;;;;;5.50;5.20;;;24.70;99.90;;;;;;5073791;28;20489;-86
2021/07/11 06:22:52;;;;;;;5.67;5.23;;;25.10;99.90;;;;;;5074029;28;21001;-87
2021/07/11 06:25:19;;;;;;;6.43;5.93;;;25.50;99.90;;;;;;5073373;28;20505;-87
2021/07/11 06:27:46;;;;;;;5.03;4.73;;;25.80;99.90;;;;;;5073535;28;20493;-87
2021/07/11 06:30:15;;;;;;;5.40;5.00;;;26.10;99.90;;;;;;5073446;28;20498;-86
2021/07/11 06:32:45;;;;;;;4.77;4.47;;;26.20;99.90;;;;;;5073374;28;20516;-86
2021/07/11 06:35:14;;;;;;;5.40;5.00;;;26.30;99.90;;;;;;5073329;28;20448;-86
2021/07/11 06:37:42;;;;;;;5.33;4.93;;;26.60;99.90;;;;;;5073367;28;20487;-88
2021/07/11 06:40:10;;;;;;;5.20;4.30;;;26.70;99.90;;;;;;5073146;28;20966;-89
2021/07/11 06:42:38;;;;;;;4.63;4.33;;;26.90;99.90;;;;;;5073292;28;20444;-89
2021/07/11 06:45:06;;;;;;;5.03;4.73;;;27.00;99.90;;;;;;5071411;28;20505;-88
2021/07/11 06:47:33;;;;;;;5.37;5.00;;;27.10;99.90;;;;;;5072918;28;20463;-88
2021/07/11 06:50:02;;;;;;;6.20;5.80;;;27.30;99.90;;;;;;5073229;28;20486;-88
2021/07/11 06:52:28;;;;;;;6.17;5.73;;;27.40;99.90;;;;;;5073241;28;20443;-88
2021/07/11 06:54:55;;;;;;;5.07;4.67;;;27.60;99.90;;;;;;5072897;28;20475;-88
2021/07/11 06:57:22;;;;;;;4.77;4.47;;;27.60;99.90;;;;;;5072978;28;20550;-88
2021/07/11 06:59:49;;;;;;;5.70;4.80;;;27.60;99.90;;;;;;5072932;28;20451;-85
2021/07/11 07:02:16;;;;;;;4.87;4.57;;;27.60;99.90;;;;;;5072767;28;20913;-85
2021/07/11 07:04:43;;;;;;;4.77;4.47;;;27.60;99.90;;;;;;5072889;28;20447;-87
2021/07/11 07:07:10;;;;;;;5.60;5.20;;;27.70;99.90;;;;;;5072927;28;20497;-87
2021/07/11 07:09:37;;;;;;;5.33;5.00;;;27.60;99.90;;;;;;5072756;28;20452;-86
2021/07/11 07:12:07;;;;;;;5.03;4.73;;;27.50;99.90;;;;;;5072595;28;20494;-86
2021/07/11 07:14:34;;;;;;;5.33;4.83;;;27.50;99.90;;;;;;5072822;28;20475;-86
2021/07/11 07:17:06;;;;;;;5.40;5.10;;;27.40;99.90;;;;;;5072731;28;20497;-86
2021/07/11 07:19:33;;;;;;;4.93;4.63;;;27.30;99.90;;;;;;5072574;28;20780;-85
2021/07/11 07:21:59;;;;;;;5.10;4.80;;;27.20;99.90;;;;;;5072484;28;20451;-86
2021/07/11 07:24:30;;;;;;;5.07;4.77;;;27.30;99.90;;;;;;5072666;28;20439;-86
2021/07/11 07:26:57;;;;;;;5.60;5.20;;;27.40;99.90;;;;;;5072523;28;20529;-85
2021/07/11 07:29:23;;;;;;;4.50;4.23;;;27.50;99.90;;;;;;5072217;28;20886;-84
2021/07/11 07:31:50;;;;;;;7.90;7.10;;;27.70;99.90;;;;;;5072577;28;20534;-85
2021/07/11 07:34:18;;;;;;;5.47;5.07;;;27.90;99.90;;;;;;5072110;28;21016;-84
2021/07/11 07:36:47;;;;;;;4.40;4.20;;;28.20;99.90;;;;;;5071939;28;20447;-84
2021/07/11 07:39:16;;;;;;;4.70;4.20;;;28.30;99.90;;;;;;5055577;28;20485;-84
2021/07/11 07:41:44;;;;;;;4.90;3.90;;;28.40;99.90;;;;;;5072401;28;20522;-85
2021/07/11 07:44:10;;;;;;;4.10;3.80;;;28.40;99.90;;;;;;5072044;28;20513;-86
2021/07/11 07:46:37;;;;;;;5.00;3.90;;;28.30;99.90;;;;;;5080441;28;20447;-86
2021/07/11 07:49:04;;;;;;;4.47;4.17;;;28.40;99.90;;;;;;5080975;28;20518;-87
2021/07/11 07:51:30;;;;;;;4.33;4.13;;;28.50;99.90;;;;;;5082555;28;20507;-88
2021/07/11 07:53:57;;;;;;;5.60;5.20;;;28.50;99.90;;;;;;5081196;28;20467;-87
2021/07/11 07:56:23;;;;;;;5.87;5.37;;;28.60;99.90;;;;;;5074825;28;20877;-87
2021/07/11 07:58:53;;;;;;;4.00;3.70;;;28.60;99.90;;;;;;5078023;28;20483;-88
2021/07/11 08:01:19;;;;;;;3.97;3.67;;;28.70;99.90;;;;;;5078170;28;20535;-87
2021/07/11 08:03:46;;;;;;;3.40;3.20;;;28.70;99.90;;;;;;5072376;28;20486;-86
2021/07/11 08:06:12;;;;;;;4.33;3.83;;;28.80;99.90;;;;;;5072416;28;20863;-86
2021/07/11 08:08:39;;;;;;;3.20;2.90;;;28.80;99.90;;;;;;5072507;28;20619;-87
2021/07/11 08:11:07;;;;;;;3.17;2.87;;;28.80;99.90;;;;;;5072926;28;20488;-87
2021/07/11 08:13:34;;;;;;;3.23;3.00;;;28.90;99.90;;;;;;5073392;28;20443;-88
2021/07/11 08:16:02;;;;;;;3.40;3.20;;;28.90;99.90;;;;;;5073181;28;20452;-88
2021/07/11 08:18:29;;;;;;;3.47;3.17;;;28.90;99.90;;;;;;5072900;28;20529;-86
2021/07/11 08:21:20;;;;;;;3.10;3.00;;;28.90;99.90;;;;;;5072723;28;20436;-89
2021/07/11 08:24:20;;;;;;;2.77;2.67;;;28.80;99.90;;;;;;5072682;28;21056;-88
2021/07/11 08:26:52;;;;;;;3.00;2.80;;;28.80;99.90;;;;;;5074380;28;20447;-88
2021/07/11 08:32:21;;;;;;;3.10;2.90;;;28.70;99.90;;;;;;5076107;28;20455;-88
2021/07/11 08:34:52;;;;;;;3.20;2.90;;;28.70;99.90;;;;;;5071635;28;20520;-88
2021/07/11 08:37:22;;;;;;;3.00;2.73;;;28.70;99.90;;;;;;5056072;28;20490;-87
2021/07/11 08:39:54;;;;;;;3.00;2.63;;;28.60;99.90;;;;;;5071722;28;20455;-88
2021/07/11 08:42:29;;;;;;;2.90;2.70;;;28.50;99.90;;;;;;5071979;28;20464;-87
2021/07/11 08:45:02;;;;;;;3.80;2.80;;;28.40;99.90;;;;;;5071738;28;20443;-90
2021/07/11 08:47:36;;;;;;;3.40;3.20;;;28.40;99.90;;;;;;5076466;28;20967;-90
2021/07/11 08:50:13;;;;;;;5.40;3.10;;;28.30;99.90;;;;;;5081600;28;20881;-89
2021/07/11 08:52:47;;;;;;;2.90;2.70;;;28.20;99.90;;;;;;5072352;28;20459;-89
2021/07/11 08:55:33;;;;;;;3.10;2.90;;;28.10;99.90;;;;;;5077744;28;20475;-89
2021/07/11 08:58:06;;;;;;;3.23;2.87;;;28.00;99.90;;;;;;5082857;28;20558;-90
2021/07/11 09:00:44;;;;;;;3.10;2.90;;;28.10;99.90;;;;;;5080455;28;21069;-87
2021/07/11 09:04:11;;;;;;;2.53;2.43;;;28.00;99.90;;;;;;5071341;28;20446;-88
2021/07/11 09:06:45;;;;;;;3.30;3.03;;;28.10;99.90;;;;;;5079535;28;20444;-88
2021/07/11 09:09:17;;;;;;;4.37;4.07;;;28.00;99.90;;;;;;5069695;28;20455;-88
2021/07/11 09:12:01;;;;;;;3.60;3.40;;;28.00;99.90;;;;;;5075768;28;20915;-87
2021/07/11 09:14:33;;;;;;;3.20;2.77;;;27.90;99.90;;;;;;5069844;28;20943;-86
2021/07/11 09:17:07;;;;;;;3.17;2.87;;;27.90;99.90;;;;;;5069520;28;20447;-91
2021/07/11 09:19:38;;;;;;;3.20;3.00;;;27.80;99.90;;;;;;5069535;28;20598;-80
2021/07/11 09:22:11;;;;;;;2.93;2.60;;;27.80;99.90;;;;;;5069443;28;20448;-80
2021/07/11 09:24:46;;;;;;;3.00;2.80;;;27.80;99.90;;;;;;5069766;28;20446;-81
2021/07/11 09:27:14;;;;;;;3.10;2.90;;;27.80;99.90;;;;;;5065491;28;20459;-81
2021/07/11 09:29:42;;;;;;;2.70;2.50;;;27.80;99.90;;;;;;5074004;28;20464;-81
2021/07/11 09:32:21;;;;;;;4.90;4.00;;;27.70;99.90;;;;;;5068342;28;20809;-80
2021/07/11 09:34:48;;;;;;;3.70;3.43;;;27.60;99.90;;;;;;5067842;28;20546;-81
2021/07/11 09:37:17;;;;;;;3.23;3.03;;;27.50;99.90;;;;;;5068548;28;20451;-81
2021/07/11 09:39:49;;;;;;;3.53;2.57;;;27.50;99.90;;;;;;5068965;28;20487;-81
2021/07/11 09:42:30;;;;;;;2.80;2.60;;;27.40;99.90;;;;;;5069365;28;20533;-81
2021/07/11 09:45:00;;;;;;;2.67;2.50;;;27.30;99.90;;;;;;5072800;28;20950;-81
2021/07/11 09:47:29;;;;;;;2.77;2.57;;;27.30;99.90;;;;;;5075245;28;20450;-81
2021/07/11 09:50:05;;;;;;;3.10;2.80;;;27.20;99.90;;;;;;5071228;28;20459;-80
2021/07/11 09:52:33;;;;;;;3.03;2.83;;;27.20;99.90;;;;;;5073477;28;20953;-80
2021/07/11 09:55:02;;;;;;;2.63;2.43;;;27.10;99.90;;;;;;5079141;28;20482;-80
2021/07/11 09:57:34;;;;;;;3.77;2.67;;;27.00;99.90;;;;;;5067977;28;20455;-80
2021/07/11 10:00:04;;;;;;;3.03;2.73;;;27.00;99.90;;;;;;5066491;28;20456;-81
2021/07/11 10:02:31;;;;;;;3.00;2.80;;;27.00;99.90;;;;;;5070178;28;20493;-81
2021/07/11 10:04:58;;;;;;;2.90;2.60;;;27.00;99.90;;;;;;5068522;28;20452;-81
2021/07/11 10:07:24;;;;;;;3.20;3.00;;;27.10;99.90;;;;;;5072995;28;20522;-81
2021/07/11 10:09:52;;;;;;;3.17;2.87;;;27.10;99.90;;;;;;5069765;28;20546;-81
2021/07/11 10:12:19;;;;;;;2.87;2.67;;;27.20;99.90;;;;;;5074618;28;20858;-82
2021/07/11 10:14:46;;;;;;;3.30;3.00;;;27.20;99.90;;;;;;5073199;28;20447;-80
2021/07/11 10:17:15;;;;;;;2.93;2.73;;;27.20;99.90;;;;;;5073179;28;20444;-80
2021/07/11 10:19:46;;;;;;;3.07;2.87;;;27.20;99.90;;;;;;5072990;28;20471;-80
2021/07/11 10:22:14;;;;;;;3.30;3.07;;;27.30;99.90;;;;;;5073108;28;20475;-80
2021/07/11 10:24:43;;;;;;;3.47;3.27;;;27.30;99.90;;;;;;5072828;28;20456;-80
2021/07/11 10:27:19;;;;;;;2.83;2.63;;;27.30;99.90;;;;;;5073615;28;20447;-80
2021/07/11 10:29:46;;;;;;;3.00;2.57;;;27.30;99.90;;;;;;5073295;28;20550;-80
2021/07/11 10:32:22;;;;;;;3.03;2.80;;;27.30;99.90;;;;;;5073064;28;20530;-79
2021/07/11 10:34:48;;;;;;;2.87;2.67;;;27.30;99.90;;;;;;5073198;28;20546;-80
2021/07/11 10:37:16;;;;;;;2.73;2.53;;;27.30;99.90;;;;;;5073313;28;20852;-80
2021/07/11 10:39:44;;;;;;;2.90;2.70;;;27.30;99.90;;;;;;5073490;28;20901;-80
2021/07/11 10:42:11;;;;;;;3.17;2.97;;;27.30;99.90;;;;;;5073146;28;20849;-80
2021/07/11 10:44:40;;;;;;;3.30;2.70;;;27.30;99.90;;;;;;5073233;28;20855;-80
2021/07/11 10:47:06;;;;;;;2.43;2.33;;;27.30;99.90;;;;;;5072770;28;20443;-80
2021/07/11 10:49:35;;;;;;;3.27;3.07;;;27.30;99.90;;;;;;5073258;28;20887;-79
2021/07/11 10:52:04;;;;;;;2.67;2.57;;;27.30;99.90;;;;;;5072755;28;20456;-80
2021/07/11 10:54:32;;;;;;;3.23;2.93;;;27.30;99.90;;;;;;5072896;28;20827;-80
2021/07/11 10:57:01;;;;;;;3.10;2.90;;;27.30;99.90;;;;;;5072964;28;20479;-80
2021/07/11 10:59:33;;;;;;;2.77;2.67;;;27.30;99.90;;;;;;5069762;28;20573;-79
2021/07/11 11:02:04;;;;;;;2.40;2.30;;;27.30;99.90;;;;;;5078870;28;20471;-79
2021/07/11 11:04:32;;;;;;;2.47;2.37;;;27.30;99.90;;;;;;5076513;28;20446;-79
2021/07/11 11:07:13;;;;;;;3.13;2.93;;;27.30;99.90;;;;;;5078677;28;21030;-79
2021/07/11 11:09:40;;;;;;;2.73;2.53;;;27.40;99.90;;;;;;5059834;28;20479;-79
2021/07/11 11:12:21;;;;;;;2.90;2.53;;;27.40;99.90;;;;;;5071874;28;20947;-80
2021/07/11 11:14:56;;;;;;;3.00;2.43;;;27.40;99.90;;;;;;5072520;28;20530;-80
2021/07/11 11:17:32;;;;;;;2.70;2.60;;;27.60;99.90;;;;;;5072544;28;20871;-80
2021/07/11 11:20:02;;;;;;;2.63;2.30;;;27.70;99.70;;;;;;5071255;28;20532;-80
2021/07/11 11:22:28;;;;;;;2.70;2.60;;;27.90;99.60;;;;;;5070542;28;20451;-80
2021/07/11 11:24:55;;;;;;;2.87;2.67;;;27.90;99.90;;;;;;5071185;28;20871;-80
2021/07/11 11:27:32;;;;;;;2.90;2.70;;;27.90;98.90;;;;;;5071054;28;20799;-80
2021/07/11 11:30:09;;;;;;;2.53;2.43;;;27.90;98.50;;;;;;5073142;28;20475;-83
2021/07/11 11:32:37;;;;;;;2.73;2.63;;;27.90;99.30;;;;;;5048673;28;20554;-85
2021/07/11 11:35:05;;;;;;;2.80;2.60;;;28.00;99.90;;;;;;5076559;28;20475;-85
2021/07/11 11:37:33;;;;;;;2.40;2.30;;;28.10;97.80;;;;;;5072662;28;20447;-86
2021/07/11 11:40:02;;;;;;;2.30;2.20;;;28.20;98.20;;;;;;5072176;28;20483;-85
2021/07/11 11:42:29;;;;;;;2.87;2.67;;;28.30;98.30;;;;;;5072232;28;20452;-84
2021/07/11 11:45:05;;;;;;;2.90;2.80;;;28.40;98.00;;;;;;5072142;28;20853;-84
2021/07/11 11:47:31;;;;;;;2.20;2.10;;;28.50;97.00;;;;;;5072152;28;20497;-85
2021/07/11 11:50:10;;;;;;;2.40;2.20;;;28.60;96.00;;;;;;5071818;28;20988;-85
2021/07/11 11:52:37;;;;;;;2.70;2.50;;;28.50;96.20;;;;;;5073069;28;20448;-86
2021/07/11 11:55:05;;;;;;;2.80;2.70;;;28.60;96.70;;;;;;5071909;28;20970;-86
2021/07/11 11:57:32;;;;;;;2.47;2.37;;;28.70;96.40;;;;;;5072055;28;20456;-86
2021/07/11 11:59:59;;;;;;;2.23;2.13;;;28.80;96.30;;;;;;5071612;28;20518;-86
2021/07/11 12:02:26;;;;;;;3.23;2.97;;;29.00;96.00;;;;;;5071268;28;20490;-86
2021/07/11 12:04:53;;;;;;;2.53;2.33;;;29.10;94.60;;;;;;5074524;28;20448;-86
2021/07/11 12:07:22;;;;;;;2.30;2.20;;;29.10;95.00;;;;;;5078386;28;20444;-85
2021/07/11 12:09:48;;;;;;;2.50;2.40;;;29.00;95.40;;;;;;5077145;28;20854;-80
2021/07/11 12:12:18;;;;;;;2.53;2.30;;;28.90;94.60;;;;;;5082491;28;20858;-80
2021/07/11 12:14:45;;;;;;;2.33;2.23;;;28.90;93.70;;;;;;5073111;28;20440;-80
2021/07/11 12:17:13;;;;;;;2.20;2.03;;;28.80;93.50;;;;;;5069038;28;20486;-80
2021/07/11 12:19:44;;;;;;;2.30;2.20;;;28.80;94.70;;;;;;5071647;28;20507;-80
2021/07/11 12:22:16;;;;;;;2.50;2.30;;;28.70;94.30;;;;;;5071649;28;20995;-80
2021/07/11 12:24:46;;;;;;;2.83;2.63;;;28.70;94.60;;;;;;5074661;28;20530;-80
2021/07/11 12:27:13;;;;;;;2.50;2.37;;;28.80;94.90;;;;;;5059075;28;20451;-81
2021/07/11 12:29:40;;;;;;;2.30;2.10;;;28.80;95.70;;;;;;5073991;28;21114;-81
2021/07/11 12:32:07;;;;;;;1.83;1.73;;;29.00;94.90;;;;;;5075380;28;20931;-81
2021/07/11 12:34:35;;;;;;;3.60;3.40;;;29.10;94.30;;;;;;5075588;28;20857;-81
2021/07/11 12:37:05;;;;;;;4.10;3.80;;;29.20;94.00;;;;;;5075091;28;20871;-78
2021/07/11 12:39:32;;;;;;;2.63;2.43;;;29.30;94.20;;;;;;5075343;28;20910;-80
2021/07/11 12:42:00;;;;;;;4.90;2.17;;;29.30;93.90;;;;;;5071838;28;20554;-80
2021/07/11 12:44:34;;;;;;;2.53;2.43;;;29.30;93.40;;;;;;5075293;28;20504;-80
2021/07/11 12:47:06;;;;;;;2.73;2.53;;;29.40;93.70;;;;;;5072628;28;20443;-79
2021/07/11 12:49:33;;;;;;;1.97;1.87;;;29.40;93.40;;;;;;5075097;28;21232;-80
2021/07/11 12:52:01;;;;;;;4.30;2.37;;;29.40;94.80;;;;;;5074841;28;20946;-79